createdAt,value
2023-02-23T00:02:29.209Z,3.78
2023-02-23T00:07:31.272Z,4.15
2023-02-23T00:12:34.622Z,3.25
2023-02-23T00:17:37.683Z,3.65
2023-02-23T00:22:40.584Z,3.55
2023-02-23T00:27:46.113Z,3.75
2023-02-23T00:32:50.089Z,3.97
2023-02-23T00:37:53.593Z,3.70
2023-02-23T00:42:55.695Z,3.00
2023-02-23T00:47:57.710Z,2.83
2023-02-23T00:53:00.332Z,3.50
2023-02-23T00:58:04.741Z,3.30
2023-02-23T01:03:06.820Z,2.28
2023-02-23T01:08:10.286Z,3.80
2023-02-23T01:13:12.344Z,4.00
2023-02-23T01:18:16.662Z,4.25
2023-02-23T01:23:20.888Z,3.40
2023-02-23T01:28:23.639Z,3.50
2023-02-23T01:33:25.922Z,3.65
2023-02-23T01:38:28.290Z,3.45
2023-02-23T01:43:30.471Z,3.70
2023-02-23T01:48:39.538Z,4.53
2023-02-23T01:53:48.138Z,3.75
2023-02-23T01:58:53.036Z,4.13
2023-02-23T02:03:58.268Z,3.55
2023-02-23T02:09:06.789Z,3.20
2023-02-23T02:14:13.230Z,4.30
2023-02-23T02:19:24.350Z,3.50
2023-02-23T02:25:03.665Z,4.70
2023-02-23T02:30:18.413Z,3.47
2023-02-23T02:35:38.187Z,3.28
2023-02-23T02:40:55.676Z,3.95
2023-02-23T02:45:57.718Z,3.90
2023-02-23T02:51:10.114Z,3.80
2023-02-23T02:56:20.081Z,3.55
2023-02-23T03:01:41.821Z,4.80
2023-02-23T03:07:15.110Z,3.53
2023-02-23T03:13:01.577Z,2.97
2023-02-23T03:19:04.865Z,3.78
2023-02-23T03:24:28.541Z,3.72
2023-02-23T03:30:14.316Z,2.95
2023-02-23T03:36:06.520Z,3.38
2023-02-23T03:41:30.077Z,4.22
2023-02-23T03:46:52.676Z,4.18
2023-02-23T03:52:22.373Z,4.38
2023-02-23T03:57:46.360Z,4.03
2023-02-23T04:03:10.653Z,3.72
2023-02-23T04:08:34.311Z,3.42
2023-02-23T04:13:39.019Z,4.32
2023-02-23T04:18:41.152Z,4.45
2023-02-23T04:23:43.556Z,5.07
2023-02-23T04:28:45.575Z,5.47
2023-02-23T04:33:47.586Z,3.50
2023-02-23T04:38:49.701Z,4.38
2023-02-23T04:43:51.736Z,3.30
2023-02-23T04:48:53.754Z,3.17
2023-02-23T04:53:56.059Z,3.92
2023-02-23T04:58:58.481Z,3.65
2023-02-23T05:04:00.588Z,3.33
2023-02-23T05:09:03.443Z,3.95
2023-02-23T05:14:05.601Z,4.00
2023-02-23T05:19:08.194Z,4.35
2023-02-23T05:24:10.323Z,3.65
2023-02-23T05:29:12.596Z,4.28
2023-02-23T05:34:17.019Z,4.05
2023-02-23T05:39:19.070Z,5.07
2023-02-23T05:44:21.163Z,3.90
2023-02-23T05:49:23.761Z,3.67
2023-02-23T05:54:25.968Z,4.15
2023-02-23T05:59:28.099Z,4.50
2023-02-23T06:04:30.105Z,4.20
2023-02-23T06:09:32.295Z,4.53
2023-02-23T06:14:35.315Z,4.32
2023-02-23T06:19:37.359Z,4.57
2023-02-23T06:24:39.421Z,4.95
2023-02-23T06:29:41.816Z,5.40
2023-02-23T06:34:44.950Z,5.90
2023-02-23T06:39:47.436Z,5.00
2023-02-23T06:44:49.620Z,5.57
2023-02-23T06:49:51.734Z,5.63
2023-02-23T06:54:53.823Z,5.72
2023-02-23T06:59:56.120Z,5.30
2023-02-23T07:04:59.067Z,5.93
2023-02-23T07:10:01.154Z,6.20
2023-02-23T07:15:03.442Z,5.40
2023-02-23T07:20:06.181Z,5.60
2023-02-23T07:25:09.416Z,5.90
2023-02-23T07:30:12.125Z,6.90
2023-02-23T07:35:14.199Z,5.40
2023-02-23T07:45:18.779Z,5.53
2023-02-23T07:50:21.181Z,5.93
2023-02-23T07:55:23.416Z,6.35
2023-02-23T08:00:27.376Z,5.60
2023-02-23T08:05:29.585Z,5.90
2023-02-23T08:15:33.676Z,5.95
2023-02-23T08:20:35.711Z,5.75
2023-02-23T08:25:37.800Z,5.75
2023-02-23T08:30:41.480Z,6.22
2023-02-23T08:35:44.328Z,6.20
2023-02-23T08:40:46.473Z,5.68
2023-02-23T08:45:48.512Z,6.05
2023-02-23T08:50:51.036Z,6.75
2023-02-23T08:55:57.729Z,5.18
2023-02-23T09:01:00.480Z,5.70
2023-02-23T09:06:11.671Z,6.00
2023-02-23T09:11:13.677Z,6.20
2023-02-23T09:16:15.942Z,6.05
2023-02-23T09:21:22.450Z,5.70
2023-02-23T09:26:26.399Z,5.95
2023-02-23T09:31:28.861Z,6.05
2023-02-23T09:36:31.793Z,5.78
2023-02-23T09:41:45.642Z,5.90
2023-02-23T09:46:54.637Z,5.85
2023-02-23T09:51:59.409Z,5.50
2023-02-23T09:57:11.738Z,5.50
2023-02-23T10:02:32.468Z,6.75
2023-02-23T10:07:51.265Z,4.80
2023-02-23T10:13:13.496Z,5.35
2023-02-23T10:18:46.556Z,5.45
2023-02-23T10:24:03.182Z,6.25
2023-02-23T10:29:19.157Z,6.03
2023-02-23T10:34:23.522Z,6.18
2023-02-23T10:39:27.517Z,5.18
2023-02-23T10:44:30.516Z,6.43
2023-02-23T10:49:46.371Z,6.10
2023-02-23T10:54:50.686Z,5.40
2023-02-23T11:00:08.501Z,5.50
2023-02-23T11:05:54.786Z,5.72
2023-02-23T11:11:08.529Z,5.90
2023-02-23T11:16:16.247Z,5.32
2023-02-23T11:21:37.001Z,5.97
2023-02-23T11:26:43.128Z,5.35
2023-02-23T11:31:52.633Z,4.88
2023-02-23T11:37:03.642Z,4.75
2023-02-23T11:42:19.356Z,4.70
2023-02-23T11:47:24.005Z,5.10
2023-02-23T11:52:28.058Z,5.00
2023-02-23T11:57:33.833Z,4.57
2023-02-23T12:03:03.410Z,5.25
2023-02-23T12:08:05.454Z,5.10
2023-02-23T12:13:44.006Z,4.53
2023-02-23T12:18:56.270Z,4.68
2023-02-23T12:24:05.394Z,4.80
2023-02-23T12:29:22.008Z,5.00
2023-02-23T12:34:36.117Z,6.03
2023-02-23T12:39:45.340Z,6.63
2023-02-23T12:44:50.232Z,6.13
2023-02-23T12:50:11.397Z,6.00
2023-02-23T12:55:14.173Z,8.40
2023-02-23T13:00:54.690Z,5.57
2023-02-23T13:05:57.894Z,6.95
2023-02-23T13:11:16.476Z,6.75
2023-02-23T13:16:30.304Z,6.57
2023-02-23T13:21:41.945Z,6.47
2023-02-23T13:27:20.947Z,6.30
2023-02-23T13:32:25.171Z,7.53
2023-02-23T13:37:43.394Z,6.43
2023-02-23T13:42:51.123Z,5.90
2023-02-23T13:48:04.856Z,7.90
2023-02-23T13:53:08.548Z,5.82
2023-02-23T13:58:16.701Z,5.72
2023-02-23T14:03:27.342Z,6.40
2023-02-23T14:08:35.567Z,6.18
2023-02-23T14:13:57.281Z,5.72
2023-02-23T14:19:31.055Z,5.03
2023-02-23T14:24:33.187Z,6.18
2023-02-23T14:29:43.983Z,5.45
2023-02-23T14:34:53.274Z,5.05
2023-02-23T14:40:15.573Z,4.82
2023-02-23T14:45:30.691Z,4.82
2023-02-23T14:50:39.239Z,4.65
2023-02-23T14:55:44.727Z,5.30
2023-02-23T15:00:46.883Z,4.40
2023-02-23T15:05:57.232Z,4.00
2023-02-23T15:11:10.262Z,4.78
2023-02-23T15:16:26.917Z,4.80
2023-02-23T15:21:29.066Z,4.72
2023-02-23T15:26:35.062Z,4.57
2023-02-23T15:31:41.206Z,4.68
2023-02-23T15:36:47.381Z,3.40
2023-02-23T15:41:50.136Z,4.45
2023-02-23T15:47:01.290Z,3.72
2023-02-23T15:52:08.400Z,4.35
2023-02-23T15:57:21.541Z,3.50
2023-02-23T16:02:25.254Z,5.25
2023-02-23T16:07:38.250Z,4.30
2023-02-23T16:12:44.606Z,4.93
2023-02-23T16:17:52.408Z,4.90
2023-02-23T16:22:56.083Z,4.90
2023-02-23T16:28:19.109Z,4.55
2023-02-23T16:33:24.260Z,4.28
2023-02-23T16:38:38.441Z,5.00
2023-02-23T16:43:40.486Z,5.55
2023-02-23T16:48:42.873Z,6.03
2023-02-23T16:53:45.016Z,3.30
2023-02-23T16:58:55.644Z,5.00
2023-02-23T17:03:59.249Z,5.73
2023-02-23T17:09:01.301Z,4.13
2023-02-23T17:14:03.348Z,5.78
2023-02-23T17:19:07.302Z,4.40
2023-02-23T17:24:09.305Z,6.15
2023-02-23T17:29:11.364Z,4.93
2023-02-23T17:34:13.954Z,5.68
2023-02-23T17:39:16.951Z,4.45
2023-02-23T17:44:18.983Z,5.47
2023-02-23T17:49:21.009Z,5.07
2023-02-23T17:54:23.050Z,5.60
2023-02-23T17:59:25.070Z,4.05
2023-02-23T18:04:27.220Z,5.28
2023-02-23T18:09:29.334Z,6.38
2023-02-23T18:14:31.772Z,3.92
2023-02-23T18:19:33.933Z,5.35
2023-02-23T18:24:37.282Z,5.22
2023-02-23T18:29:39.746Z,5.57
2023-02-23T18:34:41.813Z,6.35
2023-02-23T18:39:43.849Z,6.85
2023-02-23T18:44:46.134Z,7.60
2023-02-23T18:49:48.356Z,6.30
2023-02-23T18:54:50.703Z,5.90
2023-02-23T18:59:53.896Z,4.78
2023-02-23T19:05:02.946Z,4.63
2023-02-23T19:10:09.325Z,5.38
2023-02-23T19:15:12.421Z,4.57
2023-02-23T19:20:14.793Z,5.68
2023-02-23T19:25:17.255Z,5.65
2023-02-23T19:30:19.466Z,4.10
2023-02-23T19:35:21.766Z,5.40
2023-02-23T19:40:28.645Z,5.13
2023-02-23T19:45:30.791Z,4.93
2023-02-23T19:50:33.151Z,5.40
2023-02-23T19:55:35.148Z,6.07
2023-02-23T20:00:37.148Z,6.47
2023-02-23T20:05:43.304Z,5.88
2023-02-23T20:10:45.496Z,6.75
2023-02-23T20:15:47.616Z,6.78
2023-02-23T20:20:49.695Z,5.60
2023-02-23T20:25:51.861Z,5.85
2023-02-23T20:30:54.005Z,4.75
2023-02-23T20:35:56.437Z,5.55
2023-02-23T20:40:58.880Z,4.85
2023-02-23T20:46:01.330Z,5.63
2023-02-23T20:51:07.301Z,4.47
2023-02-23T20:56:10.183Z,5.10
2023-02-23T21:01:19.564Z,6.70
2023-02-23T21:06:25.218Z,5.00
2023-02-23T21:11:27.352Z,5.93
2023-02-23T21:16:32.462Z,5.18
2023-02-23T21:21:48.043Z,5.70
2023-02-23T21:26:50.113Z,5.45
2023-02-23T21:31:52.325Z,5.35
2023-02-23T21:36:55.387Z,5.85
2023-02-23T21:41:58.137Z,5.72
2023-02-23T21:47:00.918Z,5.75
2023-02-23T21:52:03.621Z,5.50
2023-02-23T21:57:05.767Z,4.63
2023-02-23T22:02:11.409Z,5.43
2023-02-23T22:07:13.902Z,5.75
2023-02-23T22:12:16.159Z,5.75
2023-02-23T22:17:19.414Z,5.45
2023-02-23T22:22:21.715Z,3.83
2023-02-23T22:27:23.926Z,4.60
2023-02-23T22:32:27.873Z,5.97
2023-02-23T22:37:31.659Z,5.45
2023-02-23T22:42:35.521Z,5.07
2023-02-23T22:47:37.552Z,5.90
2023-02-23T22:52:40.842Z,6.53
2023-02-23T22:57:43.156Z,6.63
2023-02-23T23:02:45.135Z,3.08
2023-02-23T23:07:48.027Z,4.50
2023-02-23T23:12:50.140Z,3.72
2023-02-23T23:17:52.244Z,4.43
2023-02-23T23:22:57.236Z,6.65
2023-02-23T23:27:59.348Z,5.43
2023-02-23T23:33:02.004Z,5.78
2023-02-23T23:38:06.310Z,4.15
2023-02-23T23:43:08.485Z,5.43
2023-02-23T23:48:11.374Z,5.63
2023-02-23T23:53:14.689Z,6.22
2023-02-23T23:58:18.552Z,5.72
